createdAt,value
2017-10-06T00:00:43.268Z,6.23
2017-10-06T00:03:11.876Z,4.90
2017-10-06T00:05:39.885Z,6.67
2017-10-06T00:08:07.804Z,3.00
2017-10-06T00:10:35.696Z,4.13
2017-10-06T00:13:03.534Z,3.37
2017-10-06T00:15:32.228Z,3.37
2017-10-06T00:18:00.890Z,6.23
2017-10-06T00:20:28.739Z,3.10
2017-10-06T00:22:56.632Z,3.03
2017-10-06T00:25:25.270Z,7.90
2017-10-06T00:27:53.172Z,7.07
2017-10-06T00:30:21.293Z,8.47
2017-10-06T00:32:49.116Z,4.23
2017-10-06T00:35:17.086Z,5.90
2017-10-06T00:37:45.697Z,5.60
2017-10-06T00:40:13.763Z,3.10
2017-10-06T00:42:41.697Z,6.93
2017-10-06T00:45:09.610Z,3.70
2017-10-06T00:47:37.453Z,6.90
2017-10-06T00:50:06.145Z,3.23
2017-10-06T00:52:34.795Z,3.57
2017-10-06T00:55:02.685Z,4.00
2017-10-06T00:57:31.414Z,4.87
2017-10-06T00:59:59.973Z,6.03
2017-10-06T01:02:27.853Z,3.07
2017-10-06T01:04:55.717Z,6.70
2017-10-06T01:07:23.677Z,6.97
2017-10-06T01:09:51.641Z,6.77
2017-10-06T01:12:19.560Z,7.13
2017-10-06T01:14:47.428Z,12.70
2017-10-06T01:17:15.264Z,9.57
2017-10-06T01:19:43.328Z,8.00
2017-10-06T01:22:11.255Z,7.60
2017-10-06T01:24:39.223Z,6.77
2017-10-06T01:27:07.935Z,9.93
2017-10-06T01:29:35.905Z,8.90
2017-10-06T01:32:03.865Z,8.30
2017-10-06T01:34:32.501Z,7.13
2017-10-06T01:37:00.528Z,6.57
2017-10-06T01:39:28.563Z,6.20
2017-10-06T01:41:56.452Z,8.07
2017-10-06T01:44:25.134Z,9.27
2017-10-06T01:46:53.833Z,9.50
2017-10-06T01:49:21.687Z,8.73
2017-10-06T01:51:50.535Z,7.67
2017-10-06T01:54:18.495Z,8.27
2017-10-06T01:56:46.612Z,8.77
2017-10-06T01:59:15.331Z,9.10
2017-10-06T02:01:43.297Z,11.53
2017-10-06T02:04:11.243Z,14.30
2017-10-06T02:06:39.890Z,10.97
2017-10-06T02:09:07.732Z,12.37
2017-10-06T02:11:35.591Z,15.43
2017-10-06T02:14:03.541Z,10.83
2017-10-06T02:16:31.394Z,8.17
2017-10-06T02:19:00.013Z,9.85
2017-10-06T02:21:28.201Z,9.20
2017-10-06T02:23:56.044Z,14.30
2017-10-06T02:26:23.988Z,8.80
2017-10-06T02:28:52.640Z,7.70
2017-10-06T02:31:20.807Z,7.10
2017-10-06T02:33:48.889Z,6.83
2017-10-06T02:36:16.919Z,5.70
2017-10-06T02:38:44.774Z,6.63
2017-10-06T02:41:13.600Z,6.10
2017-10-06T02:43:41.441Z,5.60
2017-10-06T02:46:09.330Z,5.47
2017-10-06T02:48:37.329Z,5.20
2017-10-06T02:51:06.291Z,11.67
2017-10-06T02:53:34.196Z,8.40
2017-10-06T02:56:02.889Z,7.23
2017-10-06T02:58:31.575Z,11.67
2017-10-06T03:01:00.314Z,6.53
2017-10-06T03:03:28.191Z,6.40
2017-10-06T03:05:56.076Z,11.73
2017-10-06T03:08:23.925Z,8.10
2017-10-06T03:10:51.780Z,6.57
2017-10-06T03:13:19.662Z,6.33
2017-10-06T03:15:47.576Z,6.00
2017-10-06T03:18:15.484Z,5.93
2017-10-06T03:20:43.395Z,11.00
2017-10-06T03:23:11.330Z,7.50
2017-10-06T03:25:39.213Z,7.03
2017-10-06T03:28:08.029Z,7.33
2017-10-06T03:30:35.896Z,6.57
2017-10-06T03:33:03.825Z,6.47
2017-10-06T03:35:31.713Z,9.27
2017-10-06T03:38:00.774Z,9.07
2017-10-06T03:40:28.691Z,12.83
2017-10-06T03:42:57.400Z,5.70
2017-10-06T03:45:25.208Z,6.77
2017-10-06T03:47:53.195Z,5.13
2017-10-06T03:50:21.781Z,6.77
2017-10-06T03:52:50.434Z,5.80
2017-10-06T03:55:18.319Z,10.23
2017-10-06T03:57:46.168Z,5.97
2017-10-06T04:00:14.079Z,4.30
2017-10-06T04:02:41.916Z,4.90
2017-10-06T04:05:09.816Z,6.80
2017-10-06T04:07:37.659Z,7.60
2017-10-06T04:10:06.301Z,9.37
2017-10-06T04:12:34.482Z,14.73
2017-10-06T04:15:02.423Z,14.13
2017-10-06T04:17:30.728Z,9.37
2017-10-06T04:19:58.652Z,16.57
2017-10-06T04:22:26.632Z,19.00
2017-10-06T04:24:54.745Z,12.97
2017-10-06T04:27:22.680Z,12.60
2017-10-06T04:29:50.542Z,18.50
2017-10-06T04:32:18.787Z,21.37
2017-10-06T04:34:47.778Z,16.47
2017-10-06T04:37:15.915Z,10.43
2017-10-06T04:39:43.809Z,12.27
2017-10-06T04:42:12.421Z,16.23
2017-10-06T04:44:40.306Z,13.60
2017-10-06T04:47:08.190Z,7.70
2017-10-06T04:49:36.036Z,8.90
2017-10-06T04:52:03.897Z,9.50
2017-10-06T04:54:31.755Z,9.30
2017-10-06T04:56:59.625Z,7.33
2017-10-06T04:59:27.571Z,8.30
2017-10-06T05:01:56.217Z,8.40
2017-10-06T05:04:24.190Z,6.63
2017-10-06T05:06:52.115Z,5.33
2017-10-06T05:09:19.983Z,8.43
2017-10-06T05:11:47.897Z,11.43
2017-10-06T05:14:15.857Z,6.77
2017-10-06T05:16:43.736Z,6.13
2017-10-06T05:19:11.781Z,6.80
2017-10-06T05:21:39.668Z,7.27
2017-10-06T05:24:07.630Z,6.00
2017-10-06T05:26:35.535Z,6.50
2017-10-06T05:29:04.439Z,8.43
2017-10-06T05:31:32.420Z,4.80
2017-10-06T05:34:01.408Z,6.93
2017-10-06T05:36:29.323Z,7.73
2017-10-06T05:38:57.137Z,8.43
2017-10-06T05:41:24.992Z,11.00
2017-10-06T05:43:53.582Z,10.53
2017-10-06T05:46:21.468Z,6.37
2017-10-06T05:48:49.538Z,7.47
2017-10-06T05:51:17.564Z,6.87
2017-10-06T05:53:46.326Z,7.00
2017-10-06T05:56:14.661Z,6.47
2017-10-06T05:58:42.605Z,5.30
2017-10-06T06:01:11.243Z,4.33
2017-10-06T06:03:39.146Z,3.60
2017-10-06T06:06:07.872Z,18.80
2017-10-06T06:08:35.920Z,3.97
2017-10-06T06:11:04.575Z,12.80
2017-10-06T06:13:32.797Z,4.93
2017-10-06T06:16:00.739Z,10.70
2017-10-06T06:18:29.437Z,5.90
2017-10-06T06:20:58.152Z,9.13
2017-10-06T06:23:26.191Z,7.33
2017-10-06T06:25:54.817Z,3.40
2017-10-06T06:28:22.670Z,6.77
2017-10-06T06:30:50.882Z,6.70
2017-10-06T06:33:18.799Z,5.30
2017-10-06T06:35:46.692Z,3.50
2017-10-06T06:38:14.597Z,4.03
2017-10-06T06:40:43.004Z,5.53
2017-10-06T06:43:10.891Z,10.63
2017-10-06T06:45:38.812Z,6.50
2017-10-06T06:48:06.728Z,6.87
2017-10-06T06:50:34.728Z,6.63
2017-10-06T06:53:02.681Z,9.53
2017-10-06T06:55:30.540Z,9.30
2017-10-06T06:57:58.521Z,10.40
2017-10-06T07:00:26.472Z,11.20
2017-10-06T07:02:54.444Z,8.43
2017-10-06T07:05:22.421Z,13.97
2017-10-06T07:07:50.315Z,7.20
2017-10-06T07:10:18.565Z,5.37
2017-10-06T07:12:46.566Z,8.23
2017-10-06T07:15:15.326Z,11.53
2017-10-06T07:17:43.328Z,7.63
2017-10-06T07:20:12.654Z,12.27
2017-10-06T07:22:40.550Z,6.73
2017-10-06T07:25:09.206Z,8.97
2017-10-06T07:27:37.149Z,11.60
2017-10-06T07:30:05.865Z,16.93
2017-10-06T07:32:33.782Z,10.40
2017-10-06T07:35:01.709Z,10.20
2017-10-06T07:37:29.594Z,11.30
2017-10-06T07:39:57.506Z,11.60
2017-10-06T07:42:26.328Z,17.53
2017-10-06T07:44:54.301Z,13.30
2017-10-06T07:47:22.276Z,10.67
2017-10-06T07:49:50.132Z,16.00
2017-10-06T07:52:18.042Z,15.13
2017-10-06T07:54:45.857Z,10.43
2017-10-06T07:57:13.799Z,13.23
2017-10-06T07:59:42.437Z,12.73
2017-10-06T08:02:10.348Z,11.23
2017-10-06T08:04:38.982Z,11.40
2017-10-06T08:07:06.889Z,17.80
2017-10-06T08:09:34.769Z,13.60
2017-10-06T08:12:02.646Z,14.40
2017-10-06T08:14:31.421Z,20.30
2017-10-06T08:16:59.274Z,12.43
2017-10-06T08:19:27.161Z,13.70
2017-10-06T08:21:56.095Z,15.23
2017-10-06T08:24:23.958Z,9.80
2017-10-06T08:26:51.885Z,9.23
2017-10-06T08:29:20.606Z,14.60
2017-10-06T08:31:48.637Z,19.17
2017-10-06T08:34:17.268Z,16.20
2017-10-06T08:36:45.203Z,14.83
2017-10-06T08:39:13.937Z,10.23
2017-10-06T08:41:41.871Z,21.90
2017-10-06T08:44:09.740Z,16.87
2017-10-06T08:46:37.847Z,13.17
2017-10-06T08:49:05.731Z,14.07
2017-10-06T08:51:33.610Z,8.77
2017-10-06T08:54:02.246Z,11.17
2017-10-06T08:56:30.128Z,8.70
2017-10-06T08:58:58.119Z,10.43
2017-10-06T09:01:25.982Z,11.90
2017-10-06T09:03:53.845Z,14.50
2017-10-06T09:06:22.010Z,16.43
2017-10-06T09:08:49.849Z,9.73
2017-10-06T09:11:17.710Z,13.17
2017-10-06T09:13:45.526Z,19.73
2017-10-06T09:16:14.146Z,12.90
2017-10-06T09:18:42.780Z,17.10
2017-10-06T09:21:10.650Z,25.43
2017-10-06T09:23:39.449Z,15.67
2017-10-06T09:26:07.391Z,13.87
2017-10-06T09:28:35.438Z,14.40
2017-10-06T09:31:04.684Z,10.60
2017-10-06T09:33:32.775Z,20.77
2017-10-06T09:36:01.495Z,15.93
2017-10-06T09:38:29.357Z,12.30
2017-10-06T09:40:57.304Z,13.70
2017-10-06T09:43:25.934Z,11.67
2017-10-06T09:45:53.797Z,18.47
2017-10-06T09:48:21.669Z,14.93
2017-10-06T09:50:50.515Z,21.20
2017-10-06T09:53:19.248Z,13.77
2017-10-06T09:55:47.117Z,10.23
2017-10-06T09:58:14.980Z,8.77
2017-10-06T10:00:42.921Z,9.83
2017-10-06T10:03:10.983Z,6.90
2017-10-06T10:05:38.846Z,12.97
2017-10-06T10:08:06.738Z,14.17
2017-10-06T10:10:34.601Z,11.30
2017-10-06T10:13:02.594Z,8.27
2017-10-06T10:15:30.455Z,8.70
2017-10-06T10:17:58.296Z,15.83
2017-10-06T10:20:26.145Z,8.87
2017-10-06T10:22:54.032Z,9.40
2017-10-06T10:25:23.114Z,8.70
2017-10-06T10:27:51.233Z,8.20
2017-10-06T10:30:19.141Z,9.93
2017-10-06T10:32:47.000Z,7.23
2017-10-06T10:35:15.631Z,12.10
2017-10-06T10:37:43.514Z,13.87
2017-10-06T10:40:11.486Z,11.93
2017-10-06T10:42:39.341Z,7.40
2017-10-06T10:45:07.275Z,8.53
2017-10-06T10:47:35.247Z,10.80
2017-10-06T10:50:03.181Z,17.43
2017-10-06T10:52:31.281Z,8.93
2017-10-06T10:54:59.335Z,8.73
2017-10-06T10:57:28.049Z,13.00
2017-10-06T10:59:55.999Z,14.20
2017-10-06T11:02:24.847Z,9.17
2017-10-06T11:04:52.771Z,7.93
2017-10-06T11:07:20.786Z,12.90
2017-10-06T11:09:48.790Z,11.90
2017-10-06T11:12:16.733Z,17.40
2017-10-06T11:14:44.755Z,10.87
2017-10-06T11:17:12.654Z,10.70
2017-10-06T11:19:40.595Z,14.90
2017-10-06T11:22:08.601Z,9.40
2017-10-06T11:24:36.577Z,12.30
2017-10-06T11:27:04.550Z,13.73
2017-10-06T11:29:32.696Z,6.33
2017-10-06T11:32:00.697Z,16.23
2017-10-06T11:34:28.627Z,7.40
2017-10-06T11:36:56.552Z,11.57
2017-10-06T11:39:25.517Z,13.00
2017-10-06T11:41:54.290Z,9.90
2017-10-06T11:44:22.209Z,7.70
2017-10-06T11:46:50.288Z,11.87
2017-10-06T11:49:18.253Z,11.27
2017-10-06T11:51:46.216Z,12.07
2017-10-06T11:54:14.185Z,16.30
2017-10-06T11:56:42.195Z,16.47
2017-10-06T11:59:10.162Z,17.03
2017-10-06T12:01:38.154Z,10.63
2017-10-06T12:04:06.275Z,7.83
2017-10-06T12:06:34.351Z,15.37
2017-10-06T12:09:02.523Z,8.90
2017-10-06T12:11:31.194Z,15.50
2017-10-06T12:13:59.110Z,10.87
2017-10-06T12:16:27.120Z,12.73
2017-10-06T12:18:55.103Z,13.67
2017-10-06T12:21:23.050Z,15.07
2017-10-06T12:23:51.905Z,23.40
2017-10-06T12:26:19.904Z,14.07
2017-10-06T12:28:48.641Z,11.63
2017-10-06T12:31:16.588Z,34.60
2017-10-06T12:33:45.405Z,11.80
2017-10-06T12:36:14.151Z,21.53
2017-10-06T12:38:42.126Z,13.35
2017-10-06T12:41:10.240Z,12.13
2017-10-06T12:43:38.423Z,19.53
2017-10-06T12:46:06.423Z,20.03
2017-10-06T12:48:35.138Z,13.40
2017-10-06T12:51:03.037Z,12.77
2017-10-06T12:53:31.028Z,9.47
2017-10-06T12:55:59.024Z,37.97
2017-10-06T12:58:27.808Z,10.30
2017-10-06T13:00:55.762Z,9.93
2017-10-06T13:03:23.689Z,27.77
2017-10-06T13:05:51.615Z,13.40
2017-10-06T13:08:20.477Z,13.53
2017-10-06T13:10:48.476Z,7.50
2017-10-06T13:13:17.213Z,27.07
2017-10-06T13:15:45.136Z,17.23
2017-10-06T13:18:13.010Z,35.20
2017-10-06T13:20:41.007Z,8.20
2017-10-06T13:23:08.893Z,17.10
2017-10-06T13:25:37.047Z,8.90
2017-10-06T13:28:04.963Z,24.10
2017-10-06T13:30:33.560Z,10.70
2017-10-06T13:33:02.268Z,15.50
2017-10-06T13:35:30.110Z,16.90
2017-10-06T13:37:58.900Z,8.80
2017-10-06T13:40:27.492Z,15.10
2017-10-06T13:42:55.411Z,9.57
2017-10-06T13:45:23.289Z,8.33
2017-10-06T13:47:51.930Z,9.00
2017-10-06T13:50:20.005Z,7.03
2017-10-06T13:52:48.382Z,9.20
2017-10-06T13:55:16.285Z,17.70
2017-10-06T13:57:44.179Z,16.57
2017-10-06T14:00:12.904Z,3.90
2017-10-06T14:02:40.762Z,7.53
2017-10-06T14:05:09.421Z,3.87
2017-10-06T14:07:37.253Z,13.80
2017-10-06T14:10:05.211Z,12.13
2017-10-06T14:12:33.091Z,4.43
2017-10-06T14:15:00.992Z,11.05
2017-10-06T14:17:29.339Z,10.38
2017-10-06T14:19:57.215Z,14.07
2017-10-06T14:22:26.321Z,7.00
2017-10-06T14:24:55.161Z,7.87
2017-10-06T14:27:23.127Z,7.73
2017-10-06T14:29:50.970Z,6.47
2017-10-06T14:32:18.824Z,4.80
2017-10-06T14:34:46.656Z,9.48
2017-10-06T14:37:14.475Z,9.70
2017-10-06T14:39:42.353Z,7.20
2017-10-06T14:42:10.229Z,5.72
2017-10-06T14:44:38.099Z,14.10
2017-10-06T14:47:08.376Z,8.67
2017-10-06T14:49:37.151Z,5.77
2017-10-06T14:52:05.905Z,9.33
2017-10-06T14:54:33.791Z,7.27
2017-10-06T14:57:01.696Z,11.93
2017-10-06T14:59:29.524Z,10.93
2017-10-06T15:01:57.426Z,4.00
2017-10-06T15:04:25.297Z,13.00
2017-10-06T15:06:53.148Z,6.77
2017-10-06T15:09:21.000Z,8.10
2017-10-06T15:11:50.205Z,7.40
2017-10-06T15:14:18.080Z,12.60
2017-10-06T15:16:45.974Z,8.00
2017-10-06T15:19:13.808Z,8.93
2017-10-06T15:21:42.390Z,5.10
2017-10-06T15:24:10.440Z,6.27
2017-10-06T15:26:39.054Z,8.50
2017-10-06T15:29:06.901Z,8.43
2017-10-06T15:31:35.731Z,11.23
2017-10-06T15:34:03.643Z,8.20
2017-10-06T15:36:31.511Z,10.03
2017-10-06T15:38:59.492Z,9.60
2017-10-06T15:41:28.142Z,7.40
2017-10-06T15:43:56.017Z,12.40
2017-10-06T15:46:23.828Z,8.67
2017-10-06T15:48:51.702Z,9.83
2017-10-06T15:51:19.712Z,18.83
2017-10-06T15:53:48.053Z,21.77
2017-10-06T15:56:15.899Z,18.77
2017-10-06T15:58:44.509Z,12.87
2017-10-06T16:01:12.346Z,13.63
2017-10-06T16:03:40.985Z,14.20
2017-10-06T16:06:09.199Z,13.90
2017-10-06T16:08:37.076Z,15.20
2017-10-06T16:11:06.161Z,10.20
2017-10-06T16:13:33.994Z,10.00
2017-10-06T16:16:09.347Z,16.10
2017-10-06T16:18:37.348Z,17.83
2017-10-06T16:21:06.226Z,8.07
2017-10-06T16:23:34.916Z,21.33
2017-10-06T16:26:04.215Z,16.50
2017-10-06T16:28:32.856Z,14.07
2017-10-06T16:31:00.848Z,8.70
2017-10-06T16:33:28.822Z,14.30
2017-10-06T16:35:57.097Z,7.97
2017-10-06T16:38:24.985Z,13.70
2017-10-06T16:40:53.741Z,13.57
2017-10-06T16:43:21.658Z,8.30
2017-10-06T16:45:49.495Z,10.07
2017-10-06T16:48:19.429Z,15.40
2017-10-06T16:50:47.285Z,6.90
2017-10-06T16:53:15.926Z,10.87
2017-10-06T16:55:43.789Z,12.73
2017-10-06T16:58:11.652Z,9.50
2017-10-06T17:00:39.706Z,11.63
2017-10-06T17:03:07.554Z,14.87
2017-10-06T17:05:36.549Z,12.07
2017-10-06T17:08:05.448Z,18.13
2017-10-06T17:10:33.281Z,15.23
2017-10-06T17:13:01.938Z,11.63
2017-10-06T17:15:29.852Z,20.07
2017-10-06T17:17:57.713Z,21.47
2017-10-06T17:20:25.615Z,16.63
2017-10-06T17:22:53.439Z,14.13
2017-10-06T17:25:22.131Z,18.43
2017-10-06T17:27:50.039Z,16.17
2017-10-06T17:30:17.972Z,15.80
2017-10-06T17:32:45.861Z,13.10
2017-10-06T17:35:13.765Z,14.67
2017-10-06T17:37:41.752Z,17.07
2017-10-06T17:40:09.639Z,19.40
2017-10-06T17:42:37.533Z,12.97
2017-10-06T17:45:05.468Z,13.70
2017-10-06T17:47:33.316Z,15.93
2017-10-06T17:50:01.317Z,15.27
2017-10-06T17:52:29.513Z,13.53
2017-10-06T17:54:57.346Z,17.23
2017-10-06T17:57:26.008Z,14.80
2017-10-06T17:59:54.694Z,13.07
2017-10-06T18:02:22.789Z,14.63
2017-10-06T18:04:50.632Z,17.50
2017-10-06T18:07:18.833Z,16.40
2017-10-06T18:09:46.812Z,19.60
2017-10-06T18:12:14.672Z,17.93
2017-10-06T18:14:42.528Z,15.67
2017-10-06T18:17:11.253Z,19.13
2017-10-06T18:19:39.208Z,15.47
2017-10-06T18:22:07.268Z,22.50
2017-10-06T18:24:35.218Z,19.70
2017-10-06T18:27:03.881Z,18.40
2017-10-06T18:29:32.517Z,18.03
2017-10-06T18:32:00.340Z,17.83
2017-10-06T18:34:28.180Z,20.57
2017-10-06T18:36:56.107Z,30.67
2017-10-06T18:39:23.992Z,23.07
2017-10-06T18:41:52.611Z,26.40
2017-10-06T18:44:20.642Z,26.77
2017-10-06T18:46:48.736Z,22.70
2017-10-06T18:49:16.660Z,22.63
2017-10-06T18:51:44.541Z,21.77
2017-10-06T18:54:12.461Z,25.57
2017-10-06T18:56:40.361Z,25.83
2017-10-06T18:59:08.218Z,22.97
2017-10-06T19:01:36.831Z,23.43
2017-10-06T19:04:04.667Z,23.80
2017-10-06T19:06:34.545Z,26.83
2017-10-06T19:09:02.716Z,21.37
2017-10-06T19:11:30.606Z,18.37
2017-10-06T19:13:59.362Z,19.30
2017-10-06T19:16:27.336Z,25.70
2017-10-06T19:18:55.310Z,25.50
2017-10-06T19:21:23.185Z,20.63
2017-10-06T19:23:51.053Z,22.53
2017-10-06T19:26:19.871Z,21.33
2017-10-06T19:28:47.786Z,28.73
2017-10-06T19:31:15.710Z,23.40
2017-10-06T19:33:44.209Z,24.30
2017-10-06T19:36:13.034Z,22.07
2017-10-06T19:38:41.026Z,32.03
2017-10-06T19:41:10.614Z,31.80
2017-10-06T19:43:42.509Z,28.57
2017-10-06T19:46:11.240Z,22.73
2017-10-06T19:48:39.183Z,23.63
2017-10-06T19:51:07.565Z,25.77
2017-10-06T19:53:35.406Z,26.83
2017-10-06T19:56:04.066Z,23.10
2017-10-06T19:58:32.296Z,21.43
2017-10-06T20:01:00.267Z,25.00
2017-10-06T20:03:28.568Z,22.87
2017-10-06T20:05:56.613Z,22.97
2017-10-06T20:08:24.476Z,22.13
2017-10-06T20:10:52.340Z,33.87
2017-10-06T20:13:20.234Z,26.08
2017-10-06T20:15:52.867Z,21.67
2017-10-06T20:18:21.408Z,22.70
2017-10-06T20:20:49.789Z,19.37
2017-10-06T20:23:17.653Z,22.47
2017-10-06T20:25:45.494Z,22.43
2017-10-06T20:28:13.394Z,21.30
2017-10-06T20:30:41.345Z,24.10
2017-10-06T20:33:09.272Z,23.43
2017-10-06T20:35:37.336Z,22.30
2017-10-06T20:38:05.201Z,19.70
2017-10-06T20:40:33.183Z,20.23
2017-10-06T20:43:01.792Z,22.20
2017-10-06T20:45:29.741Z,22.23
2017-10-06T20:47:57.783Z,25.80
2017-10-06T20:50:26.398Z,21.40
2017-10-06T20:52:54.299Z,21.80
2017-10-06T20:55:22.315Z,25.37
2017-10-06T20:57:52.350Z,21.70
2017-10-06T21:00:20.268Z,26.60
2017-10-06T21:02:48.964Z,27.13
2017-10-06T21:05:17.750Z,23.40
2017-10-06T21:07:46.440Z,28.60
2017-10-06T21:10:15.575Z,25.00
2017-10-06T21:12:43.580Z,31.63
2017-10-06T21:15:11.996Z,28.53
2017-10-06T21:17:47.261Z,29.07
2017-10-06T21:20:15.344Z,25.17
2017-10-06T21:22:43.485Z,27.33
2017-10-06T21:25:12.210Z,25.47
2017-10-06T21:27:45.378Z,26.10
2017-10-06T21:30:13.802Z,24.77
2017-10-06T21:32:41.629Z,29.43
2017-10-06T21:35:09.471Z,23.83
2017-10-06T21:37:38.120Z,28.13
2017-10-06T21:40:06.187Z,32.10
2017-10-06T21:42:34.080Z,30.53
2017-10-06T21:45:02.698Z,28.73
2017-10-06T21:47:30.579Z,30.20
2017-10-06T21:49:58.657Z,30.17
2017-10-06T21:52:27.536Z,32.73
2017-10-06T21:54:55.357Z,28.03
2017-10-06T21:57:23.958Z,32.73
2017-10-06T21:59:51.820Z,34.10
2017-10-06T22:02:20.421Z,31.20
2017-10-06T22:04:48.273Z,34.90
2017-10-06T22:07:17.023Z,34.90
2017-10-06T22:09:45.108Z,37.33
2017-10-06T22:12:14.020Z,38.63
2017-10-06T22:14:42.723Z,34.30
2017-10-06T22:17:10.648Z,30.83
2017-10-06T22:19:39.233Z,31.00
2017-10-06T22:22:07.144Z,34.27
2017-10-06T22:24:35.188Z,33.03
2017-10-06T22:27:03.809Z,40.57
2017-10-06T22:29:31.666Z,34.13
2017-10-06T22:31:59.655Z,33.50
2017-10-06T22:34:27.540Z,30.30
2017-10-06T22:36:55.457Z,31.83
2017-10-06T22:39:23.354Z,33.33
2017-10-06T22:41:51.302Z,31.27
2017-10-06T22:44:19.137Z,32.80
2017-10-06T22:46:47.781Z,33.53
2017-10-06T22:49:15.619Z,39.70
2017-10-06T22:51:43.703Z,32.20
2017-10-06T22:54:11.579Z,33.93
2017-10-06T22:56:40.654Z,39.37
2017-10-06T22:59:08.535Z,36.40
2017-10-06T23:01:36.834Z,33.43
2017-10-06T23:04:04.694Z,31.33
2017-10-06T23:06:32.601Z,35.00
2017-10-06T23:09:01.567Z,35.17
2017-10-06T23:11:29.403Z,32.03
2017-10-06T23:13:57.236Z,27.13
2017-10-06T23:16:25.874Z,27.07
2017-10-06T23:18:53.741Z,29.13
2017-10-06T23:21:21.592Z,28.00
2017-10-06T23:23:49.537Z,27.60
2017-10-06T23:26:17.464Z,25.40
2017-10-06T23:28:45.300Z,24.63
2017-10-06T23:31:13.443Z,25.37
2017-10-06T23:33:41.266Z,26.67
2017-10-06T23:36:09.101Z,23.27
2017-10-06T23:38:37.103Z,26.80
2017-10-06T23:41:05.779Z,25.80
2017-10-06T23:43:33.818Z,27.47
2017-10-06T23:46:10.732Z,23.97
2017-10-06T23:48:39.055Z,25.27
2017-10-06T23:51:06.901Z,24.87
2017-10-06T23:53:35.592Z,28.73
2017-10-06T23:56:03.453Z,28.50
2017-10-06T23:58:31.326Z,22.10
